sensor_id;sensor_type;location;lat;lon;timestamp;pressure;altitude;pressure_sealevel;temperature;humidity
52777;BME280;38656;54.260;20.822;2023-04-15T00:00:54;100655.78;;;22.67;48.02
52777;BME280;38656;54.260;20.822;2023-04-15T00:03:20;100648.94;;;22.64;48.42
52777;BME280;38656;54.260;20.822;2023-04-15T00:05:46;100661.94;;;22.54;48.66
52777;BME280;38656;54.260;20.822;2023-04-15T00:08:12;100654.97;;;22.66;48.63
52777;BME280;38656;54.260;20.822;2023-04-15T00:10:40;100640.34;;;22.47;48.42
52777;BME280;38656;54.260;20.822;2023-04-15T00:13:09;100656.78;;;22.59;48.45
52777;BME280;38656;54.260;20.822;2023-04-15T00:15:35;100649.97;;;22.63;48.25
52777;BME280;38656;54.260;20.822;2023-04-15T00:18:02;100652.41;;;22.58;47.95
52777;BME280;38656;54.260;20.822;2023-04-15T00:20:29;100650.81;;;22.63;47.79
52777;BME280;38656;54.260;20.822;2023-04-15T00:23:07;100652.28;;;22.66;48.14
52777;BME280;38656;54.260;20.822;2023-04-15T00:25:33;100654.25;;;22.86;47.75
52777;BME280;38656;54.260;20.822;2023-04-15T00:27:59;100651.06;;;22.40;48.21
52777;BME280;38656;54.260;20.822;2023-04-15T00:30:26;100640.41;;;22.54;48.22
52777;BME280;38656;54.260;20.822;2023-04-15T00:32:52;100645.69;;;22.40;48.58
52777;BME280;38656;54.260;20.822;2023-04-15T00:35:18;100646.13;;;23.21;46.96
52777;BME280;38656;54.260;20.822;2023-04-15T00:37:45;100636.88;;;22.95;47.24
52777;BME280;38656;54.260;20.822;2023-04-15T00:40:12;100639.31;;;22.90;47.37
52777;BME280;38656;54.260;20.822;2023-04-15T00:42:38;100643.97;;;23.03;47.50
52777;BME280;38656;54.260;20.822;2023-04-15T00:45:05;100645.84;;;22.67;48.23
52777;BME280;38656;54.260;20.822;2023-04-15T00:47:33;100641.59;;;23.28;46.76
52777;BME280;38656;54.260;20.822;2023-04-15T00:50:00;100642.09;;;22.61;47.73
52777;BME280;38656;54.260;20.822;2023-04-15T00:52:26;100644.47;;;23.20;46.57
52777;BME280;38656;54.260;20.822;2023-04-15T00:54:52;100652.25;;;22.31;48.16
52777;BME280;38656;54.260;20.822;2023-04-15T00:57:19;100650.19;;;22.33;48.40
52777;BME280;38656;54.260;20.822;2023-04-15T00:59:46;100645.97;;;22.94;47.45
52777;BME280;38656;54.260;20.822;2023-04-15T01:02:22;100642.28;;;23.02;47.28
52777;BME280;38656;54.260;20.822;2023-04-15T01:04:49;100643.31;;;22.59;48.57
52777;BME280;38656;54.260;20.822;2023-04-15T01:07:15;100647.09;;;22.71;48.29
52777;BME280;38656;54.260;20.822;2023-04-15T01:09:42;100641.56;;;23.21;47.32
52777;BME280;38656;54.260;20.822;2023-04-15T01:12:16;100642.84;;;22.49;48.25
52777;BME280;38656;54.260;20.822;2023-04-15T01:14:45;100641.31;;;22.68;48.71
52777;BME280;38656;54.260;20.822;2023-04-15T01:17:12;100639.56;;;22.03;49.54
52777;BME280;38656;54.260;20.822;2023-04-15T01:19:38;100645.31;;;22.22;49.05
52777;BME280;38656;54.260;20.822;2023-04-15T01:22:16;100639.69;;;22.17;49.49
52777;BME280;38656;54.260;20.822;2023-04-15T01:24:54;100638.75;;;22.59;48.79
52777;BME280;38656;54.260;20.822;2023-04-15T01:27:25;100640.44;;;22.67;48.35
52777;BME280;38656;54.260;20.822;2023-04-15T01:29:57;100635.06;;;22.67;48.37
52777;BME280;38656;54.260;20.822;2023-04-15T01:32:23;100633.34;;;22.53;48.63
52777;BME280;38656;54.260;20.822;2023-04-15T01:34:49;100639.28;;;22.76;48.28
52777;BME280;38656;54.260;20.822;2023-04-15T01:37:16;100631.16;;;21.85;49.69
52777;BME280;38656;54.260;20.822;2023-04-15T01:39:42;100641.38;;;22.18;50.37
52777;BME280;38656;54.260;20.822;2023-04-15T01:42:09;100640.72;;;22.37;49.18
52777;BME280;38656;54.260;20.822;2023-04-15T01:44:36;100634.19;;;22.03;49.71
52777;BME280;38656;54.260;20.822;2023-04-15T01:47:02;100636.91;;;21.82;50.60
52777;BME280;38656;54.260;20.822;2023-04-15T01:49:28;100631.53;;;21.82;51.27
52777;BME280;38656;54.260;20.822;2023-04-15T01:51:54;100635.19;;;22.24;50.02
52777;BME280;38656;54.260;20.822;2023-04-15T01:54:20;100634.03;;;21.83;50.60
52777;BME280;38656;54.260;20.822;2023-04-15T01:56:47;100632.34;;;23.02;48.06
52777;BME280;38656;54.260;20.822;2023-04-15T01:59:13;100637.63;;;22.19;49.33
52777;BME280;38656;54.260;20.822;2023-04-15T02:01:39;100640.00;;;22.57;48.69
52777;BME280;38656;54.260;20.822;2023-04-15T02:04:06;100633.66;;;22.36;48.87
52777;BME280;38656;54.260;20.822;2023-04-15T02:06:32;100631.59;;;22.38;49.00
52777;BME280;38656;54.260;20.822;2023-04-15T02:08:59;100632.78;;;21.86;49.67
52777;BME280;38656;54.260;20.822;2023-04-15T02:11:25;100629.56;;;22.40;49.00
52777;BME280;38656;54.260;20.822;2023-04-15T02:13:51;100637.22;;;22.22;49.14
52777;BME280;38656;54.260;20.822;2023-04-15T02:16:18;100622.16;;;21.99;49.91
52777;BME280;38656;54.260;20.822;2023-04-15T02:18:50;100629.78;;;22.45;48.65
52777;BME280;38656;54.260;20.822;2023-04-15T02:21:17;100618.69;;;21.77;49.14
52777;BME280;38656;54.260;20.822;2023-04-15T02:23:44;100632.25;;;22.19;48.94
52777;BME280;38656;54.260;20.822;2023-04-15T02:26:11;100627.66;;;22.34;48.83
52777;BME280;38656;54.260;20.822;2023-04-15T02:28:38;100634.09;;;21.90;49.32
52777;BME280;38656;54.260;20.822;2023-04-15T02:31:07;100634.69;;;21.64;49.94
52777;BME280;38656;54.260;20.822;2023-04-15T02:33:34;100639.31;;;22.26;48.30
52777;BME280;38656;54.260;20.822;2023-04-15T02:36:02;100633.41;;;22.09;48.93
52777;BME280;38656;54.260;20.822;2023-04-15T02:38:28;100636.78;;;21.68;49.73
52777;BME280;38656;54.260;20.822;2023-04-15T02:40:55;100640.00;;;22.57;47.75
52777;BME280;38656;54.260;20.822;2023-04-15T02:43:22;100633.91;;;22.76;47.39
52777;BME280;38656;54.260;20.822;2023-04-15T02:45:48;100641.09;;;21.48;49.18
52777;BME280;38656;54.260;20.822;2023-04-15T02:48:14;100635.31;;;21.66;49.33
52777;BME280;38656;54.260;20.822;2023-04-15T02:50:42;100642.53;;;21.65;49.27
52777;BME280;38656;54.260;20.822;2023-04-15T02:53:09;100638.00;;;22.16;48.48
52777;BME280;38656;54.260;20.822;2023-04-15T02:55:35;100642.78;;;22.14;47.81
52777;BME280;38656;54.260;20.822;2023-04-15T02:58:01;100642.69;;;22.07;48.32
52777;BME280;38656;54.260;20.822;2023-04-15T03:00:28;100640.19;;;22.05;48.34
52777;BME280;38656;54.260;20.822;2023-04-15T03:03:00;100639.25;;;22.41;47.73
52777;BME280;38656;54.260;20.822;2023-04-15T03:05:27;100636.25;;;22.93;46.49
52777;BME280;38656;54.260;20.822;2023-04-15T03:07:53;100648.56;;;21.89;48.21
52777;BME280;38656;54.260;20.822;2023-04-15T03:10:22;100648.13;;;23.05;46.62
52777;BME280;38656;54.260;20.822;2023-04-15T03:12:48;100645.06;;;22.73;46.98
52777;BME280;38656;54.260;20.822;2023-04-15T03:15:15;100649.78;;;22.36;47.42
52777;BME280;38656;54.260;20.822;2023-04-15T03:17:41;100642.53;;;22.37;47.69
52777;BME280;38656;54.260;20.822;2023-04-15T03:20:07;100645.03;;;22.67;46.76
52777;BME280;38656;54.260;20.822;2023-04-15T03:22:35;100643.84;;;22.48;46.94
52777;BME280;38656;54.260;20.822;2023-04-15T03:25:01;100654.53;;;22.13;47.21
52777;BME280;38656;54.260;20.822;2023-04-15T03:27:27;100655.22;;;21.93;48.35
52777;BME280;38656;54.260;20.822;2023-04-15T03:29:53;100642.50;;;21.80;48.28
52777;BME280;38656;54.260;20.822;2023-04-15T03:32:19;100647.13;;;21.93;48.04
52777;BME280;38656;54.260;20.822;2023-04-15T03:34:46;100659.34;;;22.74;46.67
52777;BME280;38656;54.260;20.822;2023-04-15T03:37:12;100655.28;;;21.78;48.05
52777;BME280;38656;54.260;20.822;2023-04-15T03:39:38;100652.00;;;22.04;47.68
52777;BME280;38656;54.260;20.822;2023-04-15T03:42:04;100655.81;;;22.17;47.27
52777;BME280;38656;54.260;20.822;2023-04-15T03:44:31;100659.56;;;21.94;47.94
52777;BME280;38656;54.260;20.822;2023-04-15T03:46:57;100663.16;;;22.51;46.93
52777;BME280;38656;54.260;20.822;2023-04-15T03:49:23;100662.81;;;22.33;46.65
52777;BME280;38656;54.260;20.822;2023-04-15T03:51:50;100666.59;;;22.73;46.15
52777;BME280;38656;54.260;20.822;2023-04-15T03:54:16;100664.38;;;23.19;45.56
52777;BME280;38656;54.260;20.822;2023-04-15T03:56:42;100664.69;;;23.02;45.40
52777;BME280;38656;54.260;20.822;2023-04-15T03:59:09;100661.53;;;23.40;44.62
52777;BME280;38656;54.260;20.822;2023-04-15T04:01:35;100665.03;;;22.92;45.47
52777;BME280;38656;54.260;20.822;2023-04-15T04:04:01;100669.28;;;23.08;45.28
52777;BME280;38656;54.260;20.822;2023-04-15T04:06:27;100665.47;;;22.61;46.35
52777;BME280;38656;54.260;20.822;2023-04-15T04:08:53;100669.00;;;23.38;44.93
52777;BME280;38656;54.260;20.822;2023-04-15T04:11:20;100667.75;;;22.57;46.24
52777;BME280;38656;54.260;20.822;2023-04-15T04:13:47;100674.06;;;22.21;47.12
52777;BME280;38656;54.260;20.822;2023-04-15T04:16:13;100669.56;;;22.85;45.79
52777;BME280;38656;54.260;20.822;2023-04-15T04:18:39;100661.25;;;22.80;45.84
52777;BME280;38656;54.260;20.822;2023-04-15T04:21:05;100672.16;;;22.37;46.67
52777;BME280;38656;54.260;20.822;2023-04-15T04:23:32;100671.72;;;22.33;46.51
52777;BME280;38656;54.260;20.822;2023-04-15T04:25:58;100670.78;;;21.39;48.70
52777;BME280;38656;54.260;20.822;2023-04-15T04:28:24;100666.41;;;22.18;47.54
52777;BME280;38656;54.260;20.822;2023-04-15T04:30:51;100663.19;;;22.08;47.39
52777;BME280;38656;54.260;20.822;2023-04-15T04:33:17;100664.47;;;22.69;46.22
52777;BME280;38656;54.260;20.822;2023-04-15T04:35:43;100662.72;;;21.39;49.31
52777;BME280;38656;54.260;20.822;2023-04-15T04:38:10;100661.72;;;22.27;47.99
52777;BME280;38656;54.260;20.822;2023-04-15T04:40:36;100657.50;;;22.18;47.42
52777;BME280;38656;54.260;20.822;2023-04-15T04:43:02;100660.00;;;22.48;47.25
52777;BME280;38656;54.260;20.822;2023-04-15T04:45:28;100664.75;;;22.45;47.08
52777;BME280;38656;54.260;20.822;2023-04-15T04:47:55;100666.00;;;21.20;49.74
52777;BME280;38656;54.260;20.822;2023-04-15T04:50:21;100666.81;;;22.43;47.08
52777;BME280;38656;54.260;20.822;2023-04-15T04:52:47;100668.19;;;22.33;47.57
52777;BME280;38656;54.260;20.822;2023-04-15T04:55:13;100667.75;;;22.07;47.88
52777;BME280;38656;54.260;20.822;2023-04-15T04:57:39;100667.41;;;22.17;48.14
52777;BME280;38656;54.260;20.822;2023-04-15T05:00:07;100668.44;;;22.38;47.55
52777;BME280;38656;54.260;20.822;2023-04-15T05:02:40;100668.25;;;21.96;48.25
52777;BME280;38656;54.260;20.822;2023-04-15T05:05:09;100666.34;;;21.90;48.89
52777;BME280;38656;54.260;20.822;2023-04-15T05:07:36;100664.13;;;21.94;48.86
52777;BME280;38656;54.260;20.822;2023-04-15T05:10:02;100656.94;;;22.86;47.09
52777;BME280;38656;54.260;20.822;2023-04-15T05:12:29;100667.03;;;21.40;49.57
52777;BME280;38656;54.260;20.822;2023-04-15T05:14:55;100665.81;;;22.23;48.41
52777;BME280;38656;54.260;20.822;2023-04-15T05:17:21;100670.75;;;22.19;47.89
52777;BME280;38656;54.260;20.822;2023-04-15T05:19:47;100672.81;;;22.74;47.99
52777;BME280;38656;54.260;20.822;2023-04-15T05:22:13;100679.16;;;22.31;48.36
52777;BME280;38656;54.260;20.822;2023-04-15T05:24:40;100678.94;;;22.61;48.02
52777;BME280;38656;54.260;20.822;2023-04-15T05:27:06;100673.56;;;22.11;48.10
52777;BME280;38656;54.260;20.822;2023-04-15T05:29:33;100679.63;;;22.41;48.51
52777;BME280;38656;54.260;20.822;2023-04-15T05:32:00;100682.72;;;22.67;47.94
52777;BME280;38656;54.260;20.822;2023-04-15T05:34:26;100672.16;;;23.07;46.83
52777;BME280;38656;54.260;20.822;2023-04-15T05:36:52;100678.00;;;22.40;48.68
52777;BME280;38656;54.260;20.822;2023-04-15T05:39:18;100677.75;;;22.14;49.00
52777;BME280;38656;54.260;20.822;2023-04-15T05:41:45;100677.19;;;23.17;46.45
52777;BME280;38656;54.260;20.822;2023-04-15T05:44:11;100683.25;;;21.84;49.44
52777;BME280;38656;54.260;20.822;2023-04-15T05:46:37;100676.19;;;22.26;49.03
52777;BME280;38656;54.260;20.822;2023-04-15T05:49:09;100672.66;;;23.24;47.16
52777;BME280;38656;54.260;20.822;2023-04-15T05:51:36;100677.38;;;22.73;47.63
52777;BME280;38656;54.260;20.822;2023-04-15T05:54:02;100679.69;;;22.48;48.30
52777;BME280;38656;54.260;20.822;2023-04-15T05:56:28;100682.88;;;23.00;47.52
52777;BME280;38656;54.260;20.822;2023-04-15T05:58:54;100684.63;;;22.23;49.04
52777;BME280;38656;54.260;20.822;2023-04-15T06:01:21;100688.41;;;22.07;49.34
52777;BME280;38656;54.260;20.822;2023-04-15T06:03:47;100683.72;;;21.36;50.63
52777;BME280;38656;54.260;20.822;2023-04-15T06:06:13;100689.50;;;22.13;50.58
52777;BME280;38656;54.260;20.822;2023-04-15T06:08:40;100686.41;;;22.66;48.70
52777;BME280;38656;54.260;20.822;2023-04-15T06:11:07;100682.88;;;23.00;48.50
52777;BME280;38656;54.260;20.822;2023-04-15T06:13:33;100689.91;;;23.36;47.52
52777;BME280;38656;54.260;20.822;2023-04-15T06:15:59;100681.06;;;23.49;47.18
52777;BME280;38656;54.260;20.822;2023-04-15T06:18:26;100693.94;;;22.70;49.06
52777;BME280;38656;54.260;20.822;2023-04-15T06:20:52;100702.25;;;23.72;47.38
52777;BME280;38656;54.260;20.822;2023-04-15T06:23:18;100698.91;;;23.63;47.14
52777;BME280;38656;54.260;20.822;2023-04-15T06:25:44;100699.06;;;23.00;48.62
52777;BME280;38656;54.260;20.822;2023-04-15T06:28:10;100705.41;;;22.51;49.34
52777;BME280;38656;54.260;20.822;2023-04-15T06:30:36;100703.81;;;22.63;48.94
52777;BME280;38656;54.260;20.822;2023-04-15T06:33:04;100714.38;;;22.65;49.27
52777;BME280;38656;54.260;20.822;2023-04-15T06:35:31;100707.94;;;22.66;49.87
52777;BME280;38656;54.260;20.822;2023-04-15T06:37:57;100700.03;;;22.86;48.86
52777;BME280;38656;54.260;20.822;2023-04-15T06:40:23;100706.34;;;22.43;49.39
52777;BME280;38656;54.260;20.822;2023-04-15T06:42:50;100716.84;;;22.31;50.53
52777;BME280;38656;54.260;20.822;2023-04-15T06:45:16;100717.00;;;22.58;50.02
52777;BME280;38656;54.260;20.822;2023-04-15T06:47:42;100724.97;;;22.66;49.56
52777;BME280;38656;54.260;20.822;2023-04-15T06:50:09;100726.47;;;21.82;51.06
52777;BME280;38656;54.260;20.822;2023-04-15T06:52:36;100727.81;;;21.93;51.28
52777;BME280;38656;54.260;20.822;2023-04-15T06:55:03;100719.56;;;22.16;50.91
52777;BME280;38656;54.260;20.822;2023-04-15T06:57:30;100723.59;;;22.84;49.68
52777;BME280;38656;54.260;20.822;2023-04-15T06:59:56;100728.63;;;23.22;48.36
52777;BME280;38656;54.260;20.822;2023-04-15T07:02:22;100723.47;;;22.92;48.99
52777;BME280;38656;54.260;20.822;2023-04-15T07:04:52;100722.81;;;21.68;50.87
52777;BME280;38656;54.260;20.822;2023-04-15T07:07:19;100732.97;;;22.59;50.61
52777;BME280;38656;54.260;20.822;2023-04-15T07:09:54;100728.03;;;22.13;50.66
52777;BME280;38656;54.260;20.822;2023-04-15T07:12:21;100720.34;;;23.23;48.16
52777;BME280;38656;54.260;20.822;2023-04-15T07:14:47;100724.81;;;23.09;48.35
52777;BME280;38656;54.260;20.822;2023-04-15T07:17:14;100730.28;;;23.23;48.89
52777;BME280;38656;54.260;20.822;2023-04-15T07:19:40;100724.66;;;23.66;47.56
52777;BME280;38656;54.260;20.822;2023-04-15T07:22:06;100724.34;;;24.09;46.94
52777;BME280;38656;54.260;20.822;2023-04-15T07:24:33;100723.84;;;23.72;47.74
52777;BME280;38656;54.260;20.822;2023-04-15T07:26:59;100720.34;;;22.32;50.07
52777;BME280;38656;54.260;20.822;2023-04-15T07:29:26;100726.31;;;22.84;48.93
52777;BME280;38656;54.260;20.822;2023-04-15T07:31:52;100725.88;;;22.80;49.70
52777;BME280;38656;54.260;20.822;2023-04-15T07:34:19;100722.38;;;23.14;49.18
52777;BME280;38656;54.260;20.822;2023-04-15T07:36:46;100724.78;;;22.46;49.90
52777;BME280;38656;54.260;20.822;2023-04-15T07:39:15;100726.53;;;22.54;49.63
52777;BME280;38656;54.260;20.822;2023-04-15T07:41:41;100733.78;;;22.88;49.51
52777;BME280;38656;54.260;20.822;2023-04-15T07:44:07;100723.88;;;23.79;47.95
52777;BME280;38656;54.260;20.822;2023-04-15T07:46:34;100730.91;;;23.73;48.18
52777;BME280;38656;54.260;20.822;2023-04-15T07:49:02;100726.66;;;22.45;50.55
52777;BME280;38656;54.260;20.822;2023-04-15T07:51:28;100732.41;;;23.34;48.97
52777;BME280;38656;54.260;20.822;2023-04-15T07:53:55;100732.53;;;23.61;48.45
52777;BME280;38656;54.260;20.822;2023-04-15T07:56:21;100737.25;;;22.75;49.04
52777;BME280;38656;54.260;20.822;2023-04-15T07:58:48;100732.00;;;22.67;49.62
52777;BME280;38656;54.260;20.822;2023-04-15T08:01:14;100738.31;;;22.81;49.26
52777;BME280;38656;54.260;20.822;2023-04-15T08:03:40;100729.19;;;22.82;49.20
52777;BME280;38656;54.260;20.822;2023-04-15T08:06:09;100737.34;;;23.30;49.13
52777;BME280;38656;54.260;20.822;2023-04-15T08:08:35;100734.81;;;23.64;48.08
52777;BME280;38656;54.260;20.822;2023-04-15T08:11:02;100733.47;;;23.05;48.49
52777;BME280;38656;54.260;20.822;2023-04-15T08:13:28;100733.22;;;22.15;50.57
52777;BME280;38656;54.260;20.822;2023-04-15T08:16:25;100733.03;;;23.01;49.74
52777;BME280;38656;54.260;20.822;2023-04-15T08:18:54;100742.63;;;22.75;49.93
52777;BME280;38656;54.260;20.822;2023-04-15T08:21:21;100742.72;;;23.24;48.97
52777;BME280;38656;54.260;20.822;2023-04-15T08:23:49;100734.94;;;21.64;51.79
52777;BME280;38656;54.260;20.822;2023-04-15T08:26:15;100740.75;;;22.76;49.93
52777;BME280;38656;54.260;20.822;2023-04-15T08:28:45;100740.63;;;22.56;49.90
52777;BME280;38656;54.260;20.822;2023-04-15T08:31:15;100744.69;;;23.08;48.98
52777;BME280;38656;54.260;20.822;2023-04-15T08:33:51;100743.75;;;22.88;49.65
52777;BME280;38656;54.260;20.822;2023-04-15T08:36:18;100746.75;;;23.06;49.01
52777;BME280;38656;54.260;20.822;2023-04-15T08:38:44;100743.13;;;23.21;48.65
52777;BME280;38656;54.260;20.822;2023-04-15T08:41:38;100745.41;;;22.89;49.45
52777;BME280;38656;54.260;20.822;2023-04-15T08:44:05;100746.00;;;23.12;48.86
52777;BME280;38656;54.260;20.822;2023-04-15T08:46:32;100747.19;;;22.47;50.06
52777;BME280;38656;54.260;20.822;2023-04-15T08:49:01;100753.97;;;21.18;53.51
52777;BME280;38656;54.260;20.822;2023-04-15T08:51:28;100756.47;;;20.90;56.36
52777;BME280;38656;54.260;20.822;2023-04-15T08:53:55;100753.84;;;22.51;51.49
52777;BME280;38656;54.260;20.822;2023-04-15T08:56:24;100750.16;;;22.87;50.27
52777;BME280;38656;54.260;20.822;2023-04-15T08:58:54;100758.06;;;22.17;51.80
52777;BME280;38656;54.260;20.822;2023-04-15T09:01:20;100752.69;;;22.38;51.66
52777;BME280;38656;54.260;20.822;2023-04-15T09:03:48;100754.19;;;22.48;51.28
52777;BME280;38656;54.260;20.822;2023-04-15T09:06:16;100758.63;;;23.60;48.44
52777;BME280;38656;54.260;20.822;2023-04-15T09:08:43;100752.38;;;21.68;51.24
52777;BME280;38656;54.260;20.822;2023-04-15T09:11:09;100751.28;;;20.88;54.38
52777;BME280;38656;54.260;20.822;2023-04-15T09:13:36;100763.31;;;22.47;51.52
52777;BME280;38656;54.260;20.822;2023-04-15T09:16:02;100759.88;;;22.81;51.08
52777;BME280;38656;54.260;20.822;2023-04-15T09:18:31;100759.25;;;21.41;52.96
52777;BME280;38656;54.260;20.822;2023-04-15T09:21:12;100758.16;;;22.73;51.49
52777;BME280;38656;54.260;20.822;2023-04-15T09:23:40;100756.09;;;22.75;50.81
52777;BME280;38656;54.260;20.822;2023-04-15T09:26:18;100748.59;;;22.71;50.76
52777;BME280;38656;54.260;20.822;2023-04-15T09:28:44;100760.59;;;22.03;52.56
52777;BME280;38656;54.260;20.822;2023-04-15T09:31:11;100761.75;;;22.59;51.22
52777;BME280;38656;54.260;20.822;2023-04-15T09:33:54;100759.09;;;22.37;51.93
52777;BME280;38656;54.260;20.822;2023-04-15T09:36:21;100762.03;;;22.42;51.50
52777;BME280;38656;54.260;20.822;2023-04-15T09:38:57;100753.69;;;22.16;52.12
52777;BME280;38656;54.260;20.822;2023-04-15T09:41:25;100756.72;;;22.06;52.27
52777;BME280;38656;54.260;20.822;2023-04-15T09:43:51;100755.28;;;21.88;53.88
52777;BME280;38656;54.260;20.822;2023-04-15T09:46:18;100757.13;;;21.88;53.82
52777;BME280;38656;54.260;20.822;2023-04-15T09:48:44;100764.28;;;21.81;53.20
52777;BME280;38656;54.260;20.822;2023-04-15T09:51:11;100763.38;;;21.73;53.90
52777;BME280;38656;54.260;20.822;2023-04-15T09:53:37;100764.50;;;22.37;52.38
52777;BME280;38656;54.260;20.822;2023-04-15T09:56:03;100757.16;;;23.09;50.73
52777;BME280;38656;54.260;20.822;2023-04-15T09:58:34;100757.16;;;23.09;49.79
52777;BME280;38656;54.260;20.822;2023-04-15T10:01:05;100762.66;;;22.66;51.27
52777;BME280;38656;54.260;20.822;2023-04-15T10:03:35;100753.72;;;22.37;51.29
52777;BME280;38656;54.260;20.822;2023-04-15T10:06:02;100761.88;;;22.29;52.02
52777;BME280;38656;54.260;20.822;2023-04-15T10:08:32;100757.69;;;22.70;51.98
52777;BME280;38656;54.260;20.822;2023-04-15T10:11:00;100751.72;;;22.03;51.73
52777;BME280;38656;54.260;20.822;2023-04-15T10:13:30;100760.28;;;22.85;50.84
52777;BME280;38656;54.260;20.822;2023-04-15T10:16:22;100755.34;;;22.60;50.77
52777;BME280;38656;54.260;20.822;2023-04-15T10:19:01;100756.38;;;22.59;50.71
52777;BME280;38656;54.260;20.822;2023-04-15T10:21:29;100758.38;;;21.70;52.36
52777;BME280;38656;54.260;20.822;2023-04-15T10:23:55;100746.75;;;23.06;50.44
52777;BME280;38656;54.260;20.822;2023-04-15T10:26:23;100754.00;;;22.27;50.30
52777;BME280;38656;54.260;20.822;2023-04-15T10:28:50;100754.41;;;22.74;50.25
52777;BME280;38656;54.260;20.822;2023-04-15T10:31:17;100762.59;;;22.88;49.95
52777;BME280;38656;54.260;20.822;2023-04-15T10:33:45;100762.97;;;22.56;50.10
52777;BME280;38656;54.260;20.822;2023-04-15T10:36:13;100751.31;;;22.77;49.45
52777;BME280;38656;54.260;20.822;2023-04-15T10:38:41;100762.03;;;22.21;51.17
52777;BME280;38656;54.260;20.822;2023-04-15T10:41:18;100763.03;;;22.20;51.68
52777;BME280;38656;54.260;20.822;2023-04-15T10:44:05;100764.66;;;22.86;49.94
52777;BME280;38656;54.260;20.822;2023-04-15T10:46:45;100773.53;;;22.79;50.34
52777;BME280;38656;54.260;20.822;2023-04-15T10:51:49;100762.47;;;23.03;49.56
52777;BME280;38656;54.260;20.822;2023-04-15T10:54:36;100770.63;;;22.53;50.41
52777;BME280;38656;54.260;20.822;2023-04-15T10:59:32;100778.31;;;22.56;50.25
52777;BME280;38656;54.260;20.822;2023-04-15T11:02:05;100771.03;;;23.41;48.36
52777;BME280;38656;54.260;20.822;2023-04-15T11:04:54;100773.63;;;22.00;51.02
52777;BME280;38656;54.260;20.822;2023-04-15T11:12:56;100777.44;;;23.05;48.42
52777;BME280;38656;54.260;20.822;2023-04-15T11:20:45;100780.88;;;21.84;50.96
52777;BME280;38656;54.260;20.822;2023-04-15T11:23:12;100780.44;;;22.67;49.48
52777;BME280;38656;54.260;20.822;2023-04-15T11:25:38;100793.81;;;21.74;51.45
52777;BME280;38656;54.260;20.822;2023-04-15T11:28:05;100783.06;;;22.32;49.93
52777;BME280;38656;54.260;20.822;2023-04-15T11:30:36;100796.78;;;21.64;51.17
52777;BME280;38656;54.260;20.822;2023-04-15T11:33:08;100791.59;;;22.64;49.58
52777;BME280;38656;54.260;20.822;2023-04-15T11:35:35;100787.69;;;21.35;51.90
52777;BME280;38656;54.260;20.822;2023-04-15T11:38:04;100786.13;;;22.51;50.08
52777;BME280;38656;54.260;20.822;2023-04-15T11:40:31;100784.00;;;22.24;49.62
52777;BME280;38656;54.260;20.822;2023-04-15T11:43:17;100794.16;;;22.29;49.75
52777;BME280;38656;54.260;20.822;2023-04-15T11:45:53;100791.66;;;22.27;49.43
52777;BME280;38656;54.260;20.822;2023-04-15T11:48:21;100797.41;;;21.21;51.80
52777;BME280;38656;54.260;20.822;2023-04-15T11:50:56;100792.72;;;21.90;50.24
52777;BME280;38656;54.260;20.822;2023-04-15T11:53:23;100798.38;;;22.32;49.61
52777;BME280;38656;54.260;20.822;2023-04-15T11:55:52;100795.34;;;22.41;49.71
52777;BME280;38656;54.260;20.822;2023-04-15T11:58:33;100800.06;;;22.83;48.82
52777;BME280;38656;54.260;20.822;2023-04-15T12:01:02;100802.19;;;22.94;48.08
52777;BME280;38656;54.260;20.822;2023-04-15T12:03:44;100805.19;;;23.82;46.60
52777;BME280;38656;54.260;20.822;2023-04-15T12:06:14;100816.22;;;21.07;51.99
52777;BME280;38656;54.260;20.822;2023-04-15T12:08:57;100803.13;;;22.51;49.05
52777;BME280;38656;54.260;20.822;2023-04-15T12:11:29;100804.22;;;21.99;50.25
52777;BME280;38656;54.260;20.822;2023-04-15T12:13:58;100804.00;;;22.87;49.04
52777;BME280;38656;54.260;20.822;2023-04-15T12:16:26;100803.38;;;21.98;51.07
52777;BME280;38656;54.260;20.822;2023-04-15T12:18:57;100812.25;;;22.35;49.62
52777;BME280;38656;54.260;20.822;2023-04-15T12:21:32;100818.31;;;22.37;49.41
52777;BME280;38656;54.260;20.822;2023-04-15T12:24:02;100818.03;;;21.96;50.13
52777;BME280;38656;54.260;20.822;2023-04-15T12:26:56;100816.88;;;23.13;47.71
52777;BME280;38656;54.260;20.822;2023-04-15T12:29:29;100811.34;;;22.93;47.68
52777;BME280;38656;54.260;20.822;2023-04-15T12:31:57;100819.81;;;23.18;47.40
52777;BME280;38656;54.260;20.822;2023-04-15T12:34:28;100818.81;;;23.67;46.39
52777;BME280;38656;54.260;20.822;2023-04-15T12:36:55;100815.44;;;22.67;48.04
52777;BME280;38656;54.260;20.822;2023-04-15T12:39:27;100818.06;;;22.54;48.39
52777;BME280;38656;54.260;20.822;2023-04-15T12:41:53;100821.56;;;23.32;46.95
52777;BME280;38656;54.260;20.822;2023-04-15T12:44:22;100819.69;;;23.05;47.35
52777;BME280;38656;54.260;20.822;2023-04-15T12:46:49;100824.56;;;22.66;47.46
52777;BME280;38656;54.260;20.822;2023-04-15T12:49:15;100818.91;;;22.61;47.82
52777;BME280;38656;54.260;20.822;2023-04-15T12:51:58;100820.16;;;22.87;47.39
52777;BME280;38656;54.260;20.822;2023-04-15T12:54:26;100818.56;;;23.14;46.95
52777;BME280;38656;54.260;20.822;2023-04-15T12:56:53;100822.84;;;22.87;46.64
52777;BME280;38656;54.260;20.822;2023-04-15T12:59:20;100821.50;;;23.26;46.30
52777;BME280;38656;54.260;20.822;2023-04-15T13:01:47;100817.00;;;22.76;46.45